createdAt,value
2023-01-25T00:01:23.996Z,97.17
2023-01-25T00:03:26.974Z,96.77
2023-01-25T00:05:30.053Z,96.17
2023-01-25T00:07:34.608Z,97.12
2023-01-25T00:09:37.746Z,96.46
2023-01-25T00:11:40.997Z,96.74
2023-01-25T00:13:44.134Z,96.51
2023-01-25T00:15:47.068Z,96.30
2023-01-25T00:17:51.330Z,95.85
2023-01-25T00:19:54.289Z,95.47
2023-01-25T00:21:57.267Z,95.67
2023-01-25T00:24:01.960Z,95.46
2023-01-25T00:26:05.188Z,96.19
2023-01-25T00:28:08.248Z,96.81
2023-01-25T00:30:12.252Z,96.07
2023-01-25T00:32:49.481Z,96.72
2023-01-25T00:34:52.605Z,97.02
2023-01-25T00:36:57.965Z,96.12
2023-01-25T00:39:02.344Z,96.79
2023-01-25T00:41:05.651Z,95.33
2023-01-25T00:43:09.999Z,95.66
2023-01-25T00:45:13.335Z,96.36
2023-01-25T00:47:16.773Z,97.02
2023-01-25T00:49:22.580Z,96.52
2023-01-25T00:51:26.196Z,96.68
2023-01-25T00:53:29.272Z,96.28
2023-01-25T00:55:33.928Z,95.85
2023-01-25T00:57:36.867Z,95.39
2023-01-25T00:59:44.326Z,96.19
2023-01-25T01:01:47.288Z,96.28
2023-01-25T01:03:52.380Z,95.97
2023-01-25T01:06:01.634Z,95.69
2023-01-25T01:08:04.924Z,95.97
2023-01-25T01:10:08.913Z,95.30
2023-01-25T01:12:13.261Z,95.25
2023-01-25T01:14:16.496Z,95.05
2023-01-25T01:16:19.569Z,95.89
2023-01-25T01:18:22.721Z,95.65
2023-01-25T01:20:25.631Z,95.04
2023-01-25T01:22:31.391Z,94.45
2023-01-25T01:24:34.390Z,94.93
2023-01-25T01:26:39.373Z,94.43
2023-01-25T01:28:43.843Z,93.75
2023-01-25T01:30:46.907Z,94.08
2023-01-25T01:32:51.398Z,94.35
2023-01-25T01:34:54.794Z,94.90
2023-01-25T01:36:57.714Z,93.65
2023-01-25T01:39:00.875Z,93.71
2023-01-25T01:41:04.133Z,94.36
2023-01-25T01:43:13.560Z,94.22
2023-01-25T01:45:53.036Z,94.37
2023-01-25T01:48:02.015Z,93.75
2023-01-25T01:50:09.682Z,94.32
2023-01-25T01:52:16.241Z,94.46
2023-01-25T01:54:22.141Z,93.39
2023-01-25T01:56:30.620Z,93.92
2023-01-25T01:58:37.591Z,93.28
2023-01-25T02:00:41.824Z,93.28
2023-01-25T02:02:46.627Z,93.79
2023-01-25T02:04:50.698Z,93.72
2023-01-25T02:06:57.295Z,94.20
2023-01-25T02:09:01.834Z,93.80
2023-01-25T02:11:05.736Z,93.86
2023-01-25T02:13:08.770Z,94.25
2023-01-25T02:15:12.274Z,93.83
2023-01-25T02:17:15.280Z,94.28
2023-01-25T02:19:28.278Z,93.43
2023-01-25T02:21:37.230Z,93.73
2023-01-25T02:23:48.481Z,93.45
2023-01-25T02:25:52.887Z,94.08
2023-01-25T02:27:57.711Z,94.50
2023-01-25T02:30:02.182Z,93.40
2023-01-25T02:32:06.828Z,93.28
2023-01-25T02:34:09.810Z,93.48
2023-01-25T02:36:22.367Z,93.29
2023-01-25T02:38:25.387Z,93.78
2023-01-25T02:40:31.854Z,94.17
2023-01-25T02:42:36.246Z,94.71
2023-01-25T02:44:43.317Z,94.07
2023-01-25T02:46:47.919Z,94.18
2023-01-25T02:48:51.014Z,95.01
2023-01-25T02:50:54.034Z,94.72
2023-01-25T02:52:57.046Z,95.14
2023-01-25T02:54:59.977Z,94.93
2023-01-25T02:57:03.497Z,94.92
2023-01-25T02:59:19.315Z,93.64
2023-01-25T03:01:27.065Z,94.29
2023-01-25T03:03:30.688Z,93.42
2023-01-25T03:05:34.005Z,94.38
2023-01-25T03:07:37.121Z,93.62
2023-01-25T03:09:40.262Z,94.17
2023-01-25T03:11:43.243Z,93.87
2023-01-25T03:13:48.008Z,93.35
2023-01-25T03:15:52.403Z,93.25
2023-01-25T03:17:56.700Z,94.42
2023-01-25T03:19:59.797Z,94.11
2023-01-25T03:22:02.810Z,94.28
2023-01-25T03:24:08.272Z,93.82
2023-01-25T03:26:17.178Z,93.49
2023-01-25T03:28:40.452Z,94.17
2023-01-25T03:30:43.479Z,94.05
2023-01-25T03:32:48.564Z,93.02
2023-01-25T03:34:55.282Z,92.92
2023-01-25T03:36:58.287Z,93.31
2023-01-25T03:39:03.439Z,93.34
2023-01-25T03:41:08.011Z,92.82
2023-01-25T03:43:11.462Z,92.91
2023-01-25T03:45:15.181Z,93.23
2023-01-25T03:47:18.555Z,92.97
2023-01-25T03:49:23.211Z,93.34
2023-01-25T03:51:27.320Z,94.09
2023-01-25T03:53:32.915Z,93.86
2023-01-25T03:55:46.360Z,93.98
2023-01-25T03:57:49.892Z,92.62
2023-01-25T03:59:53.199Z,92.96
2023-01-25T04:01:56.787Z,92.97
2023-01-25T04:03:59.798Z,93.42
2023-01-25T04:06:04.453Z,92.78
2023-01-25T04:08:08.356Z,94.26
2023-01-25T04:10:15.324Z,93.79
2023-01-25T04:12:21.847Z,94.11
2023-01-25T04:14:42.505Z,93.68
2023-01-25T04:16:47.977Z,93.50
2023-01-25T04:19:11.263Z,92.86
2023-01-25T04:21:16.784Z,94.19
2023-01-25T04:23:19.988Z,94.13
2023-01-25T04:25:23.112Z,93.82
2023-01-25T04:27:29.513Z,93.17
2023-01-25T04:29:41.378Z,92.43
2023-01-25T04:31:49.047Z,92.50
2023-01-25T04:33:52.383Z,92.56
2023-01-25T04:35:56.446Z,93.56
2023-01-25T04:38:02.179Z,92.36
2023-01-25T04:40:14.639Z,92.04
2023-01-25T04:42:21.382Z,92.23
2023-01-25T04:44:28.399Z,92.41
2023-01-25T04:46:31.484Z,92.30
2023-01-25T04:48:34.468Z,91.37
2023-01-25T04:50:41.739Z,91.84
2023-01-25T04:52:45.765Z,92.47
2023-01-25T04:54:50.259Z,92.64
2023-01-25T04:56:53.740Z,92.94
2023-01-25T04:58:56.921Z,93.10
2023-01-25T05:01:01.914Z,92.86
2023-01-25T05:03:05.317Z,92.41
2023-01-25T05:05:09.751Z,93.12
2023-01-25T05:07:13.092Z,92.98
2023-01-25T05:09:17.607Z,92.95
2023-01-25T05:11:23.246Z,92.86
2023-01-25T05:13:31.859Z,91.91
2023-01-25T05:15:44.854Z,91.56
2023-01-25T05:17:47.868Z,90.96
2023-01-25T05:19:50.916Z,92.42
2023-01-25T05:21:59.507Z,92.11
2023-01-25T05:24:17.654Z,92.53
2023-01-25T05:26:41.711Z,92.14
2023-01-25T05:28:44.712Z,92.27
2023-01-25T05:31:17.099Z,92.55
2023-01-25T05:33:20.359Z,92.08
2023-01-25T05:35:23.397Z,92.49
2023-01-25T05:37:30.043Z,92.30
2023-01-25T05:39:38.131Z,92.44
2023-01-25T05:41:42.401Z,92.77
2023-01-25T05:43:45.564Z,92.25
2023-01-25T05:45:53.610Z,92.29
2023-01-25T05:47:57.774Z,91.53
2023-01-25T05:50:01.053Z,92.61
2023-01-25T05:52:17.215Z,92.44
2023-01-25T05:54:20.387Z,92.10
2023-01-25T05:56:32.851Z,92.15
2023-01-25T05:58:37.473Z,91.62
2023-01-25T06:00:40.412Z,92.41
2023-01-25T06:02:43.800Z,92.04
2023-01-25T06:04:51.859Z,91.65
2023-01-25T06:06:54.968Z,91.59
2023-01-25T06:08:58.915Z,91.79
2023-01-25T06:11:07.742Z,91.31
2023-01-25T06:13:11.152Z,92.41
2023-01-25T06:15:15.597Z,90.44
2023-01-25T06:17:18.808Z,90.74
2023-01-25T06:19:36.135Z,91.15
2023-01-25T06:21:57.847Z,91.65
2023-01-25T06:24:00.904Z,91.48
2023-01-25T06:26:07.058Z,91.15
2023-01-25T06:28:10.333Z,90.55
2023-01-25T06:30:15.154Z,91.40
2023-01-25T06:32:18.229Z,91.85
2023-01-25T06:34:21.474Z,92.27
2023-01-25T06:36:24.798Z,92.12
2023-01-25T06:38:27.766Z,92.12
2023-01-25T06:40:30.733Z,92.02
2023-01-25T06:42:33.729Z,92.22
2023-01-25T06:44:36.712Z,92.66
2023-01-25T06:46:41.076Z,92.53
2023-01-25T06:48:44.040Z,92.22
2023-01-25T06:50:47.019Z,93.15
2023-01-25T06:52:53.841Z,92.29
2023-01-25T06:54:56.842Z,91.59
2023-01-25T06:56:59.802Z,92.84
2023-01-25T06:59:02.730Z,92.13
2023-01-25T07:01:06.992Z,92.42
2023-01-25T07:03:11.338Z,92.19
2023-01-25T07:05:14.459Z,91.44
2023-01-25T07:07:17.475Z,91.51
2023-01-25T07:09:24.068Z,91.93
2023-01-25T07:11:27.604Z,91.83
2023-01-25T07:13:32.937Z,92.22
2023-01-25T07:15:35.923Z,91.39
2023-01-25T07:17:39.001Z,92.33
2023-01-25T07:19:43.271Z,92.05
2023-01-25T07:21:47.076Z,92.49
2023-01-25T07:23:50.165Z,91.77
2023-01-25T07:25:53.127Z,91.38
2023-01-25T07:27:56.133Z,92.10
2023-01-25T07:29:59.787Z,90.86
2023-01-25T07:32:03.452Z,90.76
2023-01-25T07:34:07.145Z,91.22
2023-01-25T07:36:12.249Z,91.73
2023-01-25T07:38:15.657Z,90.48
2023-01-25T07:40:19.706Z,90.52
2023-01-25T07:42:22.707Z,91.05
2023-01-25T07:44:42.607Z,90.67
2023-01-25T07:46:48.797Z,90.01
2023-01-25T07:48:53.173Z,89.27
2023-01-25T07:51:12.489Z,89.47
2023-01-25T07:53:17.168Z,90.01
2023-01-25T07:55:20.118Z,90.16
2023-01-25T07:57:23.193Z,89.96
2023-01-25T07:59:27.119Z,89.77
2023-01-25T08:01:32.088Z,90.00
2023-01-25T08:03:35.101Z,89.53
2023-01-25T08:05:39.500Z,89.98
2023-01-25T08:07:43.341Z,89.17
2023-01-25T08:09:47.773Z,89.39
2023-01-25T08:11:52.634Z,89.65
2023-01-25T08:13:56.245Z,89.38
2023-01-25T08:15:59.512Z,89.93
2023-01-25T08:18:02.839Z,90.24
2023-01-25T08:20:07.535Z,90.41
2023-01-25T08:22:10.587Z,90.19
2023-01-25T08:24:15.236Z,90.24
2023-01-25T08:26:21.040Z,89.20
2023-01-25T08:28:24.178Z,90.86
2023-01-25T08:30:27.158Z,90.32
2023-01-25T08:32:30.259Z,90.91
2023-01-25T08:34:33.355Z,90.34
2023-01-25T08:36:36.381Z,91.22
2023-01-25T08:38:39.723Z,91.17
2023-01-25T08:40:42.719Z,90.27
2023-01-25T08:42:47.034Z,90.15
2023-01-25T08:44:50.037Z,90.28
2023-01-25T08:46:53.135Z,90.03
2023-01-25T08:48:57.240Z,90.64
2023-01-25T08:51:00.661Z,90.50
2023-01-25T08:53:03.605Z,89.19
2023-01-25T08:55:07.567Z,89.88
2023-01-25T08:57:10.595Z,89.97
2023-01-25T08:59:15.077Z,89.30
2023-01-25T09:01:19.133Z,90.34
2023-01-25T09:03:22.153Z,90.84
2023-01-25T09:05:25.174Z,90.87
2023-01-25T09:07:28.155Z,90.71
2023-01-25T09:09:31.170Z,90.55
2023-01-25T09:11:36.932Z,90.65
2023-01-25T09:13:43.353Z,90.46
2023-01-25T09:15:47.701Z,90.89
2023-01-25T09:17:52.085Z,90.10
2023-01-25T09:19:55.146Z,91.50
2023-01-25T09:21:58.259Z,91.86
2023-01-25T09:24:06.375Z,90.41
2023-01-25T09:26:11.438Z,91.11
2023-01-25T09:28:14.558Z,91.61
2023-01-25T09:30:19.274Z,91.52
2023-01-25T09:32:28.539Z,91.66
2023-01-25T09:34:31.550Z,91.99
2023-01-25T09:36:34.561Z,91.24
2023-01-25T09:38:37.646Z,91.50
2023-01-25T09:40:42.668Z,91.83
2023-01-25T09:42:53.335Z,91.07
2023-01-25T09:45:25.118Z,90.52
2023-01-25T09:47:32.080Z,90.51
2023-01-25T09:49:59.383Z,90.15
2023-01-25T09:52:15.810Z,90.94
2023-01-25T09:54:20.757Z,89.94
2023-01-25T09:56:26.952Z,89.67
2023-01-25T09:58:34.333Z,90.13
2023-01-25T10:00:40.665Z,89.94
2023-01-25T10:02:48.847Z,90.22
2023-01-25T10:04:53.033Z,89.14
2023-01-25T10:07:01.573Z,90.47
2023-01-25T10:09:17.384Z,89.07
2023-01-25T10:11:23.349Z,89.53
2023-01-25T10:13:31.586Z,89.28
2023-01-25T10:15:39.147Z,89.09
2023-01-25T10:17:42.716Z,88.87
2023-01-25T10:19:55.616Z,88.96
2023-01-25T10:22:02.345Z,88.92
2023-01-25T10:24:20.432Z,89.35
2023-01-25T10:26:26.639Z,89.10
2023-01-25T10:28:38.853Z,89.16
2023-01-25T10:30:48.068Z,88.99
2023-01-25T10:32:56.144Z,88.43
2023-01-25T10:35:13.840Z,89.32
2023-01-25T10:37:21.311Z,89.29
2023-01-25T10:39:25.072Z,88.96
2023-01-25T10:41:32.651Z,89.38
2023-01-25T10:43:35.696Z,89.39
2023-01-25T10:45:39.272Z,89.15
2023-01-25T10:47:44.044Z,89.00
2023-01-25T10:49:48.659Z,88.80
2023-01-25T10:51:53.051Z,89.60
2023-01-25T10:54:01.579Z,89.33
2023-01-25T10:56:22.679Z,89.04
2023-01-25T10:58:37.057Z,89.33
2023-01-25T11:00:42.271Z,89.63
2023-01-25T11:02:47.101Z,90.04
2023-01-25T11:04:50.217Z,89.55
2023-01-25T11:06:54.659Z,90.41
2023-01-25T11:08:57.648Z,89.84
2023-01-25T11:11:01.195Z,89.76
2023-01-25T11:13:23.739Z,89.79
2023-01-25T11:15:27.024Z,90.47
2023-01-25T11:17:32.227Z,90.24
2023-01-25T11:19:37.449Z,89.97
2023-01-25T11:21:54.049Z,90.45
2023-01-25T11:24:38.879Z,89.97
2023-01-25T11:26:50.867Z,90.23
2023-01-25T11:29:08.594Z,89.14
2023-01-25T11:31:14.036Z,89.19
2023-01-25T11:33:18.850Z,90.43
2023-01-25T11:35:26.754Z,90.10
2023-01-25T11:41:24.324Z,88.85
2023-01-25T11:43:43.657Z,88.65
2023-01-25T11:46:01.733Z,88.74
2023-01-25T11:48:14.748Z,89.17
2023-01-25T11:50:23.030Z,89.59
2023-01-25T11:52:32.562Z,90.21
2023-01-25T11:54:43.397Z,89.09
2023-01-25T11:56:54.353Z,89.15
2023-01-25T11:59:10.733Z,90.37
2023-01-25T12:01:20.162Z,90.69
2023-01-25T12:03:39.042Z,89.73
2023-01-25T12:05:51.479Z,90.46
2023-01-25T12:08:04.301Z,90.54
2023-01-25T12:10:21.340Z,90.36
2023-01-25T12:12:32.963Z,91.16
2023-01-25T12:14:47.881Z,91.30
2023-01-25T12:17:08.367Z,91.17
2023-01-25T12:19:36.413Z,90.64
2023-01-25T12:21:51.863Z,91.36
2023-01-25T12:24:05.820Z,90.54
2023-01-25T12:26:19.716Z,90.25
2023-01-25T12:28:26.807Z,90.56
2023-01-25T12:30:39.169Z,91.33
2023-01-25T12:32:46.189Z,90.22
2023-01-25T12:34:52.395Z,89.55
2023-01-25T12:36:56.066Z,90.92
2023-01-25T12:39:02.162Z,91.12
2023-01-25T12:41:09.413Z,90.08
2023-01-25T12:43:16.916Z,90.28
2023-01-25T12:45:23.911Z,89.42
2023-01-25T12:47:36.107Z,89.84
2023-01-25T12:49:43.163Z,89.00
2023-01-25T12:51:47.045Z,89.05
2023-01-25T12:53:51.904Z,88.89
2023-01-25T12:55:55.523Z,88.87
2023-01-25T12:58:03.181Z,89.01
2023-01-25T13:00:17.059Z,88.30
2023-01-25T13:02:51.748Z,88.39
2023-01-25T13:05:02.110Z,88.50
2023-01-25T13:07:12.016Z,88.26
2023-01-25T13:09:17.765Z,89.54
2023-01-25T13:11:23.148Z,88.61
2023-01-25T13:13:27.529Z,88.30
2023-01-25T13:15:41.998Z,88.69
2023-01-25T13:17:46.362Z,88.66
2023-01-25T13:19:49.837Z,88.73
2023-01-25T13:21:56.626Z,88.33
2023-01-25T13:24:17.692Z,88.51
2023-01-25T13:26:54.384Z,89.37
2023-01-25T13:28:58.258Z,89.56
2023-01-25T13:31:01.675Z,89.33
2023-01-25T13:33:09.966Z,89.76
2023-01-25T13:35:34.001Z,89.16
2023-01-25T13:37:37.473Z,88.72
2023-01-25T13:39:47.998Z,89.00
2023-01-25T13:42:00.779Z,89.16
2023-01-25T13:44:21.977Z,89.52
2023-01-25T13:46:25.876Z,89.38
2023-01-25T13:48:31.020Z,88.83
2023-01-25T13:50:36.353Z,89.08
2023-01-25T13:52:39.550Z,89.15
2023-01-25T13:54:46.113Z,89.92
2023-01-25T13:56:49.148Z,88.95
2023-01-25T13:58:52.239Z,88.65
2023-01-25T14:00:56.778Z,89.79
2023-01-25T14:02:59.975Z,89.96
2023-01-25T14:05:08.090Z,88.28
2023-01-25T14:07:15.761Z,89.15
2023-01-25T14:09:21.730Z,88.64
2023-01-25T14:11:27.353Z,89.10
2023-01-25T14:13:30.486Z,89.29
2023-01-25T14:15:34.411Z,88.88
2023-01-25T14:17:37.530Z,89.02
2023-01-25T14:19:41.754Z,88.96
2023-01-25T14:21:46.177Z,88.52
2023-01-25T14:23:49.900Z,88.98
2023-01-25T14:25:53.958Z,89.69
2023-01-25T14:27:58.511Z,89.42
2023-01-25T14:30:01.970Z,88.92
2023-01-25T14:32:05.687Z,89.14
2023-01-25T14:34:18.218Z,89.69
2023-01-25T14:36:25.677Z,89.70
2023-01-25T14:38:32.228Z,89.15
2023-01-25T14:40:35.311Z,89.51
2023-01-25T14:42:38.448Z,89.19
2023-01-25T14:44:41.842Z,90.31
2023-01-25T14:46:46.587Z,90.24
2023-01-25T14:48:49.692Z,91.01
2023-01-25T14:50:52.765Z,90.52
2023-01-25T14:52:55.970Z,90.47
2023-01-25T14:55:01.172Z,91.18
2023-01-25T14:57:05.884Z,90.40
2023-01-25T14:59:22.220Z,90.58
2023-01-25T15:01:33.706Z,90.91
2023-01-25T15:03:44.748Z,91.21
2023-01-25T15:05:48.604Z,91.07
2023-01-25T15:07:53.484Z,90.80
2023-01-25T15:10:05.654Z,90.04
2023-01-25T15:12:28.958Z,89.91
2023-01-25T15:14:32.614Z,89.90
2023-01-25T15:16:36.233Z,90.78
2023-01-25T15:18:46.232Z,91.04
2023-01-25T15:20:49.677Z,89.69
2023-01-25T15:22:52.824Z,90.57
2023-01-25T15:24:58.556Z,89.41
2023-01-25T15:27:03.425Z,89.80
2023-01-25T15:29:13.619Z,90.26
2023-01-25T15:31:19.087Z,88.91
2023-01-25T15:33:23.927Z,90.00
2023-01-25T15:35:27.798Z,88.90
2023-01-25T15:37:30.814Z,89.61
2023-01-25T15:39:34.958Z,88.56
2023-01-25T15:41:38.093Z,89.73
2023-01-25T15:43:43.150Z,89.29
2023-01-25T15:45:48.468Z,88.71
2023-01-25T15:47:51.537Z,89.11
2023-01-25T15:49:54.579Z,89.11
2023-01-25T15:51:57.990Z,89.36
2023-01-25T15:54:01.235Z,89.88
2023-01-25T15:56:07.026Z,90.11
2023-01-25T15:58:12.321Z,89.50
2023-01-25T16:00:23.131Z,90.74
2023-01-25T16:02:27.373Z,89.61
2023-01-25T16:04:30.431Z,90.26
2023-01-25T16:06:38.283Z,88.80
2023-01-25T16:08:41.399Z,89.17
2023-01-25T16:10:44.615Z,88.51
2023-01-25T16:12:47.730Z,88.34
2023-01-25T16:14:50.811Z,88.46
2023-01-25T16:16:55.619Z,88.62
2023-01-25T16:18:58.642Z,88.59
2023-01-25T16:21:01.908Z,88.90
2023-01-25T16:23:04.991Z,89.19
2023-01-25T16:25:09.311Z,88.92
2023-01-25T16:27:20.515Z,89.77
2023-01-25T16:29:23.971Z,90.14
2023-01-25T16:31:32.909Z,89.48
2023-01-25T16:33:37.867Z,89.43
2023-01-25T16:35:40.883Z,89.63
2023-01-25T16:37:44.063Z,90.96
2023-01-25T16:39:47.121Z,89.69
2023-01-25T16:41:50.565Z,90.17
2023-01-25T16:43:53.599Z,90.98
2023-01-25T16:45:57.909Z,90.30
2023-01-25T16:48:01.893Z,90.47
2023-01-25T16:50:13.518Z,90.54
2023-01-25T16:52:16.610Z,90.69
2023-01-25T16:54:20.828Z,90.92
2023-01-25T16:56:25.021Z,90.67
2023-01-25T16:58:28.050Z,90.48
2023-01-25T17:00:31.033Z,90.13
2023-01-25T17:02:34.095Z,89.39
2023-01-25T17:04:37.148Z,89.60
2023-01-25T17:06:43.840Z,89.65
2023-01-25T17:08:47.188Z,89.84
2023-01-25T17:10:50.571Z,90.14
2023-01-25T17:12:53.564Z,89.38
2023-01-25T17:14:59.481Z,90.25
2023-01-25T17:17:05.235Z,90.09
2023-01-25T17:19:11.590Z,90.49
2023-01-25T17:21:16.799Z,90.75
2023-01-25T17:23:22.501Z,90.02
2023-01-25T17:25:26.260Z,90.15
2023-01-25T17:27:29.349Z,90.29
2023-01-25T17:29:32.642Z,89.93
2023-01-25T17:31:36.408Z,90.18
2023-01-25T17:33:39.508Z,89.35
2023-01-25T17:35:42.509Z,90.95
2023-01-25T17:37:45.654Z,89.92
2023-01-25T17:39:50.024Z,90.29
2023-01-25T17:41:53.118Z,89.86
2023-01-25T17:43:56.230Z,89.36
2023-01-25T17:45:59.649Z,89.85
2023-01-25T17:48:03.188Z,90.34
2023-01-25T17:50:07.160Z,89.60
2023-01-25T17:52:10.337Z,90.04
2023-01-25T17:54:14.055Z,89.93
2023-01-25T17:56:19.202Z,90.43
2023-01-25T17:58:22.203Z,90.88
2023-01-25T18:00:25.516Z,90.88
2023-01-25T18:02:28.598Z,90.55
2023-01-25T18:04:31.817Z,89.60
2023-01-25T18:06:35.141Z,90.12
2023-01-25T18:08:40.242Z,90.15
2023-01-25T18:10:43.288Z,89.71
2023-01-25T18:13:03.770Z,89.87
2023-01-25T18:15:09.251Z,88.91
2023-01-25T18:17:12.609Z,88.59
2023-01-25T18:19:15.813Z,89.30
2023-01-25T18:21:24.082Z,89.62
2023-01-25T18:23:27.147Z,90.69
2023-01-25T18:25:33.748Z,89.88
2023-01-25T18:27:36.797Z,89.36
2023-01-25T18:29:50.676Z,90.11
2023-01-25T18:31:54.065Z,89.71
2023-01-25T18:33:58.227Z,89.67
2023-01-25T18:36:03.876Z,89.72
2023-01-25T18:38:07.043Z,89.96
2023-01-25T18:40:11.693Z,90.26
2023-01-25T18:42:14.784Z,89.70
2023-01-25T18:44:18.485Z,90.19
2023-01-25T18:46:22.982Z,90.10
2023-01-25T18:48:30.397Z,89.62
2023-01-25T18:50:33.737Z,89.06
2023-01-25T18:52:37.228Z,89.72
2023-01-25T18:54:40.362Z,88.66
2023-01-25T18:56:43.367Z,89.10
2023-01-25T18:58:46.589Z,89.92
2023-01-25T19:00:49.642Z,90.26
2023-01-25T19:02:54.189Z,89.07
2023-01-25T19:04:57.205Z,89.45
2023-01-25T19:07:01.664Z,90.11
2023-01-25T19:09:05.058Z,89.73
2023-01-25T19:11:09.885Z,89.59
2023-01-25T19:13:12.976Z,89.37
2023-01-25T19:15:16.450Z,89.02
2023-01-25T19:17:19.642Z,89.77
2023-01-25T19:19:24.399Z,89.07
2023-01-25T19:21:28.876Z,89.76
2023-01-25T19:23:34.839Z,90.36
2023-01-25T19:25:37.994Z,89.18
2023-01-25T19:27:41.276Z,89.22
2023-01-25T19:29:44.309Z,89.17
2023-01-25T19:31:47.430Z,89.82
2023-01-25T19:33:55.280Z,89.27
2023-01-25T19:36:05.291Z,88.95
2023-01-25T19:38:08.495Z,88.30
2023-01-25T19:40:13.356Z,89.23
2023-01-25T19:42:18.564Z,88.19
2023-01-25T19:44:22.074Z,89.45
2023-01-25T19:46:27.265Z,89.38
2023-01-25T19:48:32.303Z,89.07
2023-01-25T19:50:35.415Z,89.37
2023-01-25T19:52:39.886Z,88.52
2023-01-25T19:54:43.069Z,89.85
2023-01-25T19:56:47.569Z,89.60
2023-01-25T19:58:53.014Z,89.64
2023-01-25T20:00:56.331Z,89.69
2023-01-25T20:03:14.883Z,89.77
2023-01-25T20:05:19.193Z,88.72
2023-01-25T20:07:22.331Z,89.06
2023-01-25T20:09:28.417Z,89.19
2023-01-25T20:11:33.313Z,89.37
2023-01-25T20:13:36.649Z,88.88
2023-01-25T20:15:39.933Z,89.05
2023-01-25T20:17:43.607Z,89.56
2023-01-25T20:19:46.754Z,89.17
2023-01-25T20:21:50.183Z,88.41
2023-01-25T20:23:56.066Z,89.36
2023-01-25T20:26:02.650Z,88.67
2023-01-25T20:28:05.987Z,89.72
2023-01-25T20:30:10.308Z,88.38
2023-01-25T20:32:30.714Z,89.31
2023-01-25T20:34:35.308Z,88.71
2023-01-25T20:36:38.761Z,88.69
2023-01-25T20:38:42.495Z,88.08
2023-01-25T20:40:45.521Z,88.44
2023-01-25T20:42:50.220Z,87.61
2023-01-25T20:44:53.813Z,88.93
2023-01-25T20:46:57.046Z,88.37
2023-01-25T20:49:00.378Z,87.58
2023-01-25T20:51:05.020Z,88.09
2023-01-25T20:53:08.192Z,88.00
2023-01-25T20:55:11.654Z,88.03
2023-01-25T20:57:14.904Z,87.69
2023-01-25T20:59:19.737Z,88.98
2023-01-25T21:01:24.278Z,88.37
2023-01-25T21:03:29.818Z,87.72
2023-01-25T21:05:33.047Z,88.31
2023-01-25T21:07:36.056Z,88.33
2023-01-25T21:09:40.323Z,89.08
2023-01-25T21:11:44.515Z,87.65
2023-01-25T21:13:48.828Z,88.99
2023-01-25T21:16:04.685Z,87.37
2023-01-25T21:18:07.834Z,87.41
2023-01-25T21:20:11.903Z,88.32
2023-01-25T21:22:14.849Z,89.41
2023-01-25T21:24:18.098Z,87.78
2023-01-25T21:26:22.974Z,88.99
2023-01-25T21:28:25.946Z,88.92
2023-01-25T21:30:29.392Z,88.59
2023-01-25T21:32:33.827Z,88.02
2023-01-25T21:34:36.923Z,88.55
2023-01-25T21:36:40.102Z,88.90
2023-01-25T21:38:43.961Z,88.05
2023-01-25T21:40:47.107Z,89.08
2023-01-25T21:42:50.029Z,88.84
2023-01-25T21:45:10.983Z,88.39
2023-01-25T21:47:29.365Z,87.28
2023-01-25T21:49:52.281Z,88.28
2023-01-25T21:51:56.824Z,89.31
2023-01-25T21:54:00.191Z,87.53
2023-01-25T21:56:03.145Z,87.50
2023-01-25T21:58:06.150Z,88.08
2023-01-25T22:00:10.836Z,88.32
2023-01-25T22:02:15.248Z,88.53
2023-01-25T22:04:19.284Z,89.54
2023-01-25T22:06:23.848Z,88.95
2023-01-25T22:08:26.855Z,89.25
2023-01-25T22:10:29.938Z,88.28
2023-01-25T22:12:33.479Z,88.53
2023-01-25T22:14:36.707Z,88.14
2023-01-25T22:16:39.736Z,88.12
2023-01-25T22:18:43.533Z,88.12
2023-01-25T22:20:46.510Z,88.93
2023-01-25T22:22:50.864Z,88.51
2023-01-25T22:24:53.998Z,88.11
2023-01-25T22:27:00.244Z,88.64
2023-01-25T22:29:03.399Z,89.56
2023-01-25T22:31:06.915Z,88.67
2023-01-25T22:33:10.012Z,89.22
2023-01-25T22:35:13.024Z,88.81
2023-01-25T22:37:16.076Z,88.57
2023-01-25T22:39:20.424Z,88.38
2023-01-25T22:41:25.813Z,88.52
2023-01-25T22:43:28.773Z,87.86
2023-01-25T22:45:31.823Z,88.67
2023-01-25T22:47:34.992Z,88.63
2023-01-25T22:49:37.974Z,88.93
2023-01-25T22:51:40.972Z,88.38
2023-01-25T22:53:43.971Z,89.63
2023-01-25T22:55:48.381Z,88.50
2023-01-25T22:57:51.341Z,88.50
2023-01-25T22:59:54.363Z,88.93
2023-01-25T23:01:57.317Z,89.87
2023-01-25T23:04:01.442Z,88.68
2023-01-25T23:06:06.704Z,88.34
2023-01-25T23:08:09.708Z,89.13
2023-01-25T23:10:12.873Z,88.27
2023-01-25T23:12:17.380Z,88.39
2023-01-25T23:14:37.654Z,88.78
2023-01-25T23:16:40.677Z,88.40
2023-01-25T23:18:51.790Z,89.95
2023-01-25T23:20:55.138Z,89.49
2023-01-25T23:22:58.193Z,89.72
2023-01-25T23:25:01.286Z,88.53
2023-01-25T23:27:04.276Z,89.11
2023-01-25T23:29:11.303Z,89.05
2023-01-25T23:31:18.195Z,88.89
2023-01-25T23:33:21.296Z,89.35
2023-01-25T23:35:24.596Z,89.58
2023-01-25T23:37:27.875Z,89.36
2023-01-25T23:39:30.874Z,89.78
2023-01-25T23:41:33.961Z,89.19
2023-01-25T23:43:37.565Z,89.57
2023-01-25T23:45:44.537Z,89.86
2023-01-25T23:47:47.578Z,88.87
2023-01-25T23:49:50.644Z,89.36
2023-01-25T23:51:53.645Z,88.88
2023-01-25T23:53:58.264Z,89.43
2023-01-25T23:56:02.860Z,89.64
2023-01-25T23:58:05.950Z,89.89
